createdAt,value
2023-08-09T00:00:08.857Z,0.25
2023-08-09T00:02:36.833Z,0.40
2023-08-09T00:05:06.114Z,0.45
2023-08-09T00:07:35.889Z,0.40
2023-08-09T00:10:05.624Z,0.50
2023-08-09T00:12:33.678Z,0.90
2023-08-09T00:15:01.418Z,1.38
2023-08-09T00:17:29.297Z,4.90
2023-08-09T00:19:57.173Z,3.05
2023-08-09T00:22:25.895Z,8.48
2023-08-09T00:24:53.713Z,2.53
2023-08-09T00:27:22.821Z,2.08
2023-08-09T00:29:50.576Z,0.75
2023-08-09T00:32:18.618Z,0.32
2023-08-09T00:34:48.198Z,0.57
2023-08-09T00:37:16.177Z,0.65
2023-08-09T00:39:44.142Z,0.43
2023-08-09T00:42:11.995Z,0.60
2023-08-09T00:44:41.257Z,0.35
2023-08-09T00:47:10.795Z,0.30
2023-08-09T00:49:39.811Z,0.73
2023-08-09T00:52:07.803Z,0.40
2023-08-09T00:54:35.706Z,0.50
2023-08-09T00:57:03.893Z,0.80
2023-08-09T00:59:31.808Z,0.65
2023-08-09T01:02:01.053Z,0.93
2023-08-09T01:04:29.158Z,0.60
2023-08-09T01:07:01.003Z,0.73
2023-08-09T01:09:34.332Z,0.77
2023-08-09T01:12:05.546Z,0.85
2023-08-09T01:14:33.537Z,0.77
2023-08-09T01:17:03.590Z,0.90
2023-08-09T01:19:38.529Z,1.20
2023-08-09T01:22:09.100Z,1.13
2023-08-09T01:24:38.405Z,1.30
2023-08-09T01:27:06.290Z,1.10
2023-08-09T01:29:34.264Z,1.20
2023-08-09T01:32:02.128Z,1.17
2023-08-09T01:34:30.094Z,1.58
2023-08-09T01:37:01.232Z,2.33
2023-08-09T01:39:33.872Z,1.67
2023-08-09T01:42:03.169Z,1.75
2023-08-09T01:44:31.630Z,1.55
2023-08-09T01:47:00.444Z,1.60
2023-08-09T01:49:28.572Z,2.30
2023-08-09T01:51:57.189Z,2.63
2023-08-09T01:54:25.383Z,3.17
2023-08-09T01:56:55.567Z,3.15
2023-08-09T01:59:25.156Z,3.63
2023-08-09T02:01:52.920Z,3.10
2023-08-09T02:04:22.390Z,2.28
2023-08-09T02:06:50.104Z,2.90
2023-08-09T02:09:18.315Z,3.20
2023-08-09T02:11:46.256Z,3.83
2023-08-09T02:14:14.006Z,2.75
2023-08-09T02:16:43.153Z,3.42
2023-08-09T02:19:12.815Z,4.53
2023-08-09T02:21:41.933Z,3.67
2023-08-09T02:24:10.382Z,3.33
2023-08-09T02:26:40.156Z,3.92
2023-08-09T02:29:08.121Z,3.50
2023-08-09T02:31:36.331Z,3.15
2023-08-09T02:34:05.808Z,2.83
2023-08-09T02:36:37.399Z,2.38
2023-08-09T02:39:09.410Z,2.83
2023-08-09T02:41:39.381Z,8.55
2023-08-09T02:44:07.871Z,1.98
2023-08-09T02:46:35.888Z,7.70
2023-08-09T02:49:05.309Z,12.80
2023-08-09T02:51:35.517Z,6.75
2023-08-09T02:54:04.135Z,4.57
2023-08-09T02:56:32.855Z,4.47
2023-08-09T02:59:02.197Z,5.60
2023-08-09T03:01:32.408Z,5.60
2023-08-09T03:04:00.248Z,5.00
2023-08-09T03:06:29.396Z,5.65
2023-08-09T03:09:00.094Z,5.57
2023-08-09T03:11:28.031Z,5.68
2023-08-09T03:13:55.922Z,4.75
2023-08-09T03:16:24.159Z,6.95
2023-08-09T03:18:52.090Z,5.97
2023-08-09T03:21:20.009Z,6.00
2023-08-09T03:23:49.188Z,6.18
2023-08-09T03:26:16.943Z,5.60
2023-08-09T03:28:45.282Z,5.90
2023-08-09T03:31:13.088Z,6.32
2023-08-09T03:33:40.823Z,8.10
2023-08-09T03:36:08.742Z,7.65
2023-08-09T03:38:36.511Z,5.13
2023-08-09T03:41:05.571Z,5.57
2023-08-09T03:43:33.349Z,6.68
2023-08-09T03:46:01.616Z,6.28
2023-08-09T03:48:29.367Z,8.88
2023-08-09T03:50:57.364Z,6.20
2023-08-09T03:53:25.128Z,5.72
2023-08-09T03:55:52.941Z,8.10
2023-08-09T03:58:22.838Z,6.47
2023-08-09T04:00:50.644Z,7.53
2023-08-09T04:03:18.712Z,7.47
2023-08-09T04:05:46.587Z,6.68
2023-08-09T04:08:14.366Z,6.90
2023-08-09T04:10:42.096Z,6.50
2023-08-09T04:13:09.853Z,7.88
2023-08-09T04:15:39.011Z,6.70
2023-08-09T04:18:06.915Z,7.30
2023-08-09T04:20:34.635Z,5.60
2023-08-09T04:23:02.446Z,7.90
2023-08-09T04:25:30.215Z,6.07
2023-08-09T04:27:58.163Z,5.82
2023-08-09T04:30:26.101Z,4.95
2023-08-09T04:32:55.698Z,5.88
2023-08-09T04:35:24.832Z,6.57
2023-08-09T04:37:52.720Z,9.07
2023-08-09T04:40:20.672Z,14.70
2023-08-09T04:42:51.065Z,5.93
2023-08-09T04:45:19.079Z,5.28
2023-08-09T04:47:48.367Z,4.45
2023-08-09T04:50:17.679Z,4.95
2023-08-09T04:52:45.714Z,5.07
2023-08-09T04:55:13.639Z,6.63
2023-08-09T04:57:41.664Z,4.30
2023-08-09T05:00:11.276Z,4.57
2023-08-09T05:02:39.714Z,5.45
2023-08-09T05:05:08.435Z,5.63
2023-08-09T05:07:38.718Z,5.05
2023-08-09T05:10:08.493Z,5.55
2023-08-09T05:12:37.277Z,4.75
2023-08-09T05:15:05.800Z,6.20
2023-08-09T05:17:33.548Z,5.03
2023-08-09T05:20:01.355Z,7.55
2023-08-09T05:22:29.147Z,11.13
2023-08-09T05:24:58.577Z,9.98
2023-08-09T05:27:26.331Z,12.50
2023-08-09T05:29:54.118Z,11.43
2023-08-09T05:32:22.972Z,11.80
2023-08-09T05:34:50.875Z,12.75
2023-08-09T05:37:18.664Z,14.82
2023-08-09T05:39:47.973Z,13.98
2023-08-09T05:42:17.415Z,12.95
2023-08-09T05:44:45.656Z,11.90
2023-08-09T05:47:13.386Z,13.52
2023-08-09T05:49:41.149Z,14.27
2023-08-09T05:52:08.915Z,14.20
2023-08-09T05:54:36.728Z,13.60
2023-08-09T05:57:05.035Z,11.98
2023-08-09T05:59:34.164Z,15.63
2023-08-09T06:02:03.342Z,11.68
2023-08-09T06:04:31.168Z,11.55
2023-08-09T06:06:58.928Z,14.13
2023-08-09T06:09:26.685Z,11.55
2023-08-09T06:11:54.410Z,10.35
2023-08-09T06:14:22.134Z,9.80
2023-08-09T06:16:51.274Z,9.93
2023-08-09T06:19:19.417Z,8.80
2023-08-09T06:21:47.274Z,9.18
2023-08-09T06:24:15.013Z,10.07
2023-08-09T06:26:42.885Z,8.68
2023-08-09T06:29:10.713Z,10.50
2023-08-09T06:31:38.493Z,9.45
2023-08-09T06:34:07.976Z,10.30
2023-08-09T06:36:35.718Z,11.48
2023-08-09T06:39:04.095Z,8.85
2023-08-09T06:41:31.825Z,10.25
2023-08-09T06:43:59.530Z,7.70
2023-08-09T06:46:27.630Z,7.95
2023-08-09T06:48:55.368Z,8.23
2023-08-09T06:51:24.533Z,9.18
2023-08-09T06:53:52.391Z,7.35
2023-08-09T06:56:20.143Z,10.20
2023-08-09T06:58:47.845Z,9.70
2023-08-09T07:01:15.589Z,8.07
2023-08-09T07:03:43.345Z,8.75
2023-08-09T07:06:11.104Z,8.93
2023-08-09T07:08:40.253Z,7.55
2023-08-09T07:11:07.984Z,9.40
2023-08-09T07:13:38.303Z,8.82
2023-08-09T07:16:06.530Z,8.48
2023-08-09T07:18:34.300Z,10.25
2023-08-09T07:21:02.007Z,11.43
2023-08-09T07:23:47.203Z,11.15
2023-08-09T07:26:18.822Z,13.98
2023-08-09T07:28:46.562Z,13.20
2023-08-09T07:31:26.216Z,11.55
2023-08-09T07:33:54.293Z,12.60
2023-08-09T07:36:22.073Z,11.88
2023-08-09T07:38:50.014Z,13.95
2023-08-09T07:41:19.089Z,14.30
2023-08-09T07:43:46.872Z,12.82
2023-08-09T07:46:14.806Z,14.77
2023-08-09T07:48:42.562Z,16.38
2023-08-09T07:51:13.224Z,18.90
2023-08-09T07:53:42.270Z,20.23
2023-08-09T07:56:11.801Z,12.60
2023-08-09T07:58:40.979Z,18.10
2023-08-09T08:01:09.257Z,13.35
2023-08-09T08:03:37.132Z,13.35
2023-08-09T08:06:05.280Z,11.98
2023-08-09T08:08:33.030Z,20.38
2023-08-09T08:11:01.179Z,27.38
2023-08-09T08:13:28.978Z,22.25
2023-08-09T08:16:00.602Z,17.38
2023-08-09T08:18:28.811Z,13.32
2023-08-09T08:20:56.839Z,11.20
2023-08-09T08:23:24.576Z,10.40
2023-08-09T08:25:52.382Z,13.27
2023-08-09T08:28:20.080Z,13.27
2023-08-09T08:30:48.849Z,15.05
2023-08-09T08:33:18.778Z,18.75
2023-08-09T08:40:47.191Z,25.30
2023-08-09T08:43:14.997Z,19.52
2023-08-09T08:45:43.167Z,20.08
2023-08-09T08:48:12.155Z,21.27
2023-08-09T08:50:43.118Z,22.80
2023-08-09T08:53:12.222Z,24.13
2023-08-09T08:55:41.109Z,23.40
2023-08-09T08:58:10.094Z,23.77
2023-08-09T09:00:39.792Z,22.67
2023-08-09T09:03:07.611Z,22.13
2023-08-09T09:05:37.842Z,23.30
2023-08-09T09:08:07.964Z,19.80
2023-08-09T09:10:36.001Z,18.55
2023-08-09T09:13:03.824Z,18.02
2023-08-09T09:15:31.656Z,13.48
2023-08-09T09:18:00.256Z,11.85
2023-08-09T09:20:31.102Z,12.93
2023-08-09T09:22:59.648Z,15.07
2023-08-09T09:25:28.793Z,16.83
2023-08-09T09:27:58.812Z,11.55
2023-08-09T09:30:30.688Z,12.20
2023-08-09T09:33:00.246Z,10.27
2023-08-09T09:35:29.539Z,10.05
2023-08-09T09:38:00.206Z,10.90
2023-08-09T09:40:35.321Z,5.82
2023-08-09T09:43:05.420Z,5.95
2023-08-09T09:45:33.878Z,5.28
2023-08-09T09:48:03.248Z,5.57
2023-08-09T09:50:32.767Z,8.45
2023-08-09T09:53:03.584Z,11.02
2023-08-09T09:55:35.717Z,8.95
2023-08-09T09:58:03.446Z,8.18
2023-08-09T10:00:33.408Z,9.07
2023-08-09T10:03:02.674Z,6.85
2023-08-09T10:05:36.479Z,6.65
2023-08-09T10:08:12.475Z,6.05
2023-08-09T10:10:44.627Z,6.43
2023-08-09T10:13:16.144Z,5.43
2023-08-09T10:15:48.439Z,4.90
2023-08-09T10:18:18.698Z,7.05
2023-08-09T10:20:48.648Z,8.50
2023-08-09T10:23:23.612Z,4.70
2023-08-09T10:25:53.593Z,3.80
2023-08-09T10:28:21.776Z,4.13
2023-08-09T10:30:51.483Z,2.90
2023-08-09T10:33:21.143Z,2.65
2023-08-09T10:35:52.421Z,2.35
2023-08-09T10:38:23.401Z,3.38
2023-08-09T10:40:55.420Z,4.35
2023-08-09T10:43:24.563Z,2.50
2023-08-09T10:45:54.807Z,3.00
2023-08-09T10:48:24.314Z,5.53
2023-08-09T10:51:19.861Z,2.85
2023-08-09T10:53:59.687Z,3.25
2023-08-09T10:56:36.036Z,2.35
2023-08-09T10:59:08.418Z,2.22
2023-08-09T11:01:37.118Z,2.63
2023-08-09T11:04:10.743Z,2.30
2023-08-09T11:06:39.946Z,2.63
2023-08-09T11:09:12.288Z,3.58
2023-08-09T11:11:42.380Z,3.90
2023-08-09T11:14:10.807Z,3.78
2023-08-09T11:16:38.853Z,2.30
2023-08-09T11:19:11.383Z,2.65
2023-08-09T11:21:49.668Z,3.25
2023-08-09T11:24:18.477Z,3.22
2023-08-09T11:26:49.794Z,3.05
2023-08-09T11:29:18.928Z,2.85
2023-08-09T11:31:47.826Z,3.05
2023-08-09T11:34:17.494Z,5.07
2023-08-09T11:36:46.230Z,3.65
2023-08-09T11:39:14.891Z,2.42
2023-08-09T11:41:44.489Z,3.08
2023-08-09T11:44:16.420Z,3.63
2023-08-09T11:46:47.064Z,2.92
2023-08-09T11:49:15.168Z,2.50
2023-08-09T11:51:42.887Z,5.10
2023-08-09T11:54:10.981Z,3.60
2023-08-09T11:56:39.559Z,3.20
2023-08-09T11:59:10.047Z,4.47
2023-08-09T12:01:41.296Z,4.32
2023-08-09T12:04:14.264Z,3.08
2023-08-09T12:06:45.225Z,3.95
2023-08-09T12:09:45.346Z,3.35
2023-08-09T12:12:18.245Z,3.13
2023-08-09T12:14:47.457Z,4.28
2023-08-09T12:17:24.428Z,3.65
2023-08-09T12:19:52.700Z,3.35
2023-08-09T12:22:20.700Z,3.30
2023-08-09T12:24:48.927Z,3.63
2023-08-09T12:27:18.823Z,3.83
2023-08-09T12:29:46.638Z,2.78
2023-08-09T12:32:14.598Z,4.95
2023-08-09T12:34:43.862Z,5.10
2023-08-09T12:37:12.293Z,3.72
2023-08-09T12:39:40.072Z,2.75
2023-08-09T12:42:07.914Z,4.20
2023-08-09T12:44:35.680Z,4.25
2023-08-09T12:47:03.539Z,3.72
2023-08-09T12:49:31.405Z,2.88
2023-08-09T12:52:00.607Z,2.88
2023-08-09T12:54:28.645Z,4.50
2023-08-09T12:56:56.985Z,3.05
2023-08-09T12:59:24.828Z,2.42
2023-08-09T13:01:52.617Z,2.80
2023-08-09T13:04:25.057Z,3.30
2023-08-09T13:06:53.222Z,2.78
2023-08-09T13:09:22.603Z,2.58
2023-08-09T13:11:50.678Z,2.75
2023-08-09T13:14:18.499Z,3.28
2023-08-09T13:16:49.016Z,4.00
2023-08-09T13:19:16.766Z,3.38
2023-08-09T13:21:44.574Z,3.65
2023-08-09T13:24:12.401Z,4.38
2023-08-09T13:26:41.481Z,3.15
2023-08-09T13:29:09.211Z,3.28
2023-08-09T13:31:36.997Z,2.65
2023-08-09T13:34:05.171Z,2.58
2023-08-09T13:36:32.919Z,2.17
2023-08-09T13:39:00.667Z,3.78
2023-08-09T13:41:28.393Z,3.35
2023-08-09T13:43:57.480Z,2.40
2023-08-09T13:46:25.220Z,2.78
2023-08-09T13:48:53.042Z,2.42
2023-08-09T13:51:20.817Z,4.32
2023-08-09T13:53:48.553Z,2.58
2023-08-09T13:56:17.994Z,2.10
2023-08-09T13:58:45.754Z,2.13
2023-08-09T14:01:17.981Z,2.75
2023-08-09T14:03:45.768Z,2.17
2023-08-09T14:06:13.478Z,2.08
2023-08-09T14:08:41.226Z,2.35
2023-08-09T14:11:09.004Z,1.75
2023-08-09T14:13:36.721Z,3.00
2023-08-09T14:16:04.761Z,2.28
2023-08-09T14:18:34.455Z,3.17
2023-08-09T14:21:02.283Z,2.75
2023-08-09T14:23:30.529Z,2.75
2023-08-09T14:25:58.283Z,3.58
2023-08-09T14:28:26.086Z,3.20
2023-08-09T14:30:54.025Z,3.00
2023-08-09T14:33:21.780Z,3.10
2023-08-09T14:35:50.989Z,3.28
2023-08-09T14:38:19.137Z,2.70
2023-08-09T14:40:47.972Z,2.15
2023-08-09T14:43:18.317Z,2.80
2023-08-09T14:45:46.415Z,2.25
2023-08-09T14:48:14.202Z,2.25
2023-08-09T14:50:44.207Z,2.60
2023-08-09T14:53:13.747Z,2.42
2023-08-09T14:55:43.372Z,2.88
2023-08-09T14:58:11.666Z,2.28
2023-08-09T15:00:39.591Z,2.17
2023-08-09T15:03:10.223Z,3.20
2023-08-09T15:05:38.009Z,2.13
2023-08-09T15:08:08.506Z,2.70
2023-08-09T15:10:38.597Z,2.95
2023-08-09T15:13:09.507Z,2.17
2023-08-09T15:15:37.301Z,3.55
2023-08-09T15:18:05.498Z,3.15
2023-08-09T15:20:33.537Z,2.75
2023-08-09T15:23:01.303Z,2.47
2023-08-09T15:25:29.592Z,2.67
2023-08-09T15:28:01.225Z,2.83
2023-08-09T15:30:30.099Z,2.30
2023-08-09T15:32:58.086Z,2.30
2023-08-09T15:35:26.252Z,2.38
2023-08-09T15:37:54.025Z,2.42
2023-08-09T15:40:23.412Z,2.35
2023-08-09T15:42:51.177Z,2.75
2023-08-09T15:45:20.377Z,2.78
2023-08-09T15:47:48.237Z,3.83
2023-08-09T15:50:16.336Z,2.35
2023-08-09T15:52:44.055Z,2.83
2023-08-09T15:55:11.916Z,4.68
2023-08-09T15:57:39.742Z,2.63
2023-08-09T16:00:10.611Z,3.40
2023-08-09T16:02:40.260Z,2.53
2023-08-09T16:05:08.835Z,2.95
2023-08-09T16:07:36.591Z,2.17
2023-08-09T16:10:05.440Z,5.25
2023-08-09T16:12:34.352Z,3.22
2023-08-09T16:15:02.095Z,3.42
2023-08-09T16:17:29.933Z,2.47
2023-08-09T16:19:59.573Z,2.45
2023-08-09T16:22:27.626Z,2.40
2023-08-09T16:24:55.382Z,4.60
2023-08-09T16:27:25.251Z,3.22
2023-08-09T16:29:53.087Z,2.78
2023-08-09T16:32:20.961Z,2.95
2023-08-09T16:34:48.689Z,2.15
2023-08-09T16:37:17.802Z,2.00
2023-08-09T16:39:45.970Z,2.88
2023-08-09T16:42:14.004Z,3.65
2023-08-09T16:44:41.743Z,3.40
2023-08-09T16:47:09.458Z,3.20
2023-08-09T16:49:37.414Z,1.92
2023-08-09T16:52:09.243Z,2.47
2023-08-09T16:54:38.420Z,3.03
2023-08-09T16:57:06.996Z,2.22
2023-08-09T16:59:35.306Z,5.18
2023-08-09T17:02:03.338Z,3.35
2023-08-09T17:04:31.373Z,7.32
2023-08-09T17:06:59.203Z,4.32
2023-08-09T17:09:26.958Z,2.08
2023-08-09T17:11:56.059Z,1.75
2023-08-09T17:14:23.847Z,2.03
2023-08-09T17:16:52.746Z,2.55
2023-08-09T17:19:24.239Z,1.15
2023-08-09T17:21:52.033Z,2.67
2023-08-09T17:24:19.837Z,1.52
2023-08-09T17:26:47.618Z,2.95
2023-08-09T17:29:17.135Z,1.98
2023-08-09T17:31:46.212Z,1.67
2023-08-09T17:34:14.530Z,3.08
2023-08-09T17:36:42.490Z,3.20
2023-08-09T17:39:10.559Z,2.67
2023-08-09T17:41:38.314Z,2.08
2023-08-09T17:44:07.137Z,1.45
2023-08-09T17:46:36.909Z,2.28
2023-08-09T17:49:05.727Z,1.58
2023-08-09T17:51:33.561Z,2.53
2023-08-09T17:54:01.553Z,1.63
2023-08-09T17:56:30.454Z,2.42
2023-08-09T17:58:58.217Z,3.08
2023-08-09T18:01:26.087Z,2.17
2023-08-09T18:03:55.332Z,1.90
2023-08-09T18:06:24.844Z,1.83
2023-08-09T18:08:52.741Z,2.72
2023-08-09T18:11:21.453Z,2.28
2023-08-09T18:13:52.093Z,1.27
2023-08-09T18:16:19.927Z,1.17
2023-08-09T18:18:48.992Z,1.25
2023-08-09T18:21:18.127Z,1.80
2023-08-09T18:23:45.912Z,3.90
2023-08-09T18:26:13.688Z,1.85
2023-08-09T18:28:41.591Z,2.15
2023-08-09T18:31:09.356Z,2.40
2023-08-09T18:33:37.122Z,2.15
2023-08-09T18:36:05.194Z,1.52
2023-08-09T18:38:35.278Z,3.13
2023-08-09T18:41:03.972Z,2.13
2023-08-09T18:43:31.856Z,0.95
2023-08-09T18:46:00.032Z,1.33
2023-08-09T18:48:28.001Z,2.60
2023-08-09T18:50:55.996Z,1.90
2023-08-09T18:53:23.778Z,1.10
2023-08-09T18:55:52.942Z,4.72
2023-08-09T18:58:22.111Z,2.03
2023-08-09T19:00:50.491Z,1.83
2023-08-09T19:03:18.643Z,1.08
2023-08-09T19:05:47.566Z,1.40
2023-08-09T19:08:15.436Z,1.48
2023-08-09T19:10:43.206Z,1.77
2023-08-09T19:13:12.634Z,1.55
2023-08-09T19:15:40.692Z,2.58
2023-08-09T19:18:08.676Z,2.30
2023-08-09T19:20:36.527Z,1.98
2023-08-09T19:23:05.504Z,4.20
2023-08-09T19:25:33.650Z,3.08
2023-08-09T19:28:01.652Z,2.13
2023-08-09T19:30:30.811Z,2.42
2023-08-09T19:32:58.724Z,4.65
2023-08-09T19:35:26.615Z,3.20
2023-08-09T19:37:56.394Z,1.45
2023-08-09T19:40:26.039Z,3.30
2023-08-09T19:42:53.882Z,2.22
2023-08-09T19:45:22.565Z,1.70
2023-08-09T19:47:54.800Z,4.47
2023-08-09T19:50:22.951Z,1.90
2023-08-09T19:52:50.775Z,2.00
2023-08-09T19:55:20.368Z,2.17
2023-08-09T19:57:48.137Z,3.78
2023-08-09T20:00:19.124Z,2.88
2023-08-09T20:02:49.655Z,1.02
2023-08-09T20:05:18.890Z,4.13
2023-08-09T20:07:47.459Z,4.07
2023-08-09T20:10:15.297Z,1.60
2023-08-09T20:12:43.054Z,3.80
2023-08-09T20:15:12.573Z,2.28
2023-08-09T20:17:40.438Z,2.15
2023-08-09T20:20:10.780Z,1.83
2023-08-09T20:22:40.533Z,2.55
2023-08-09T20:25:08.897Z,1.52
2023-08-09T20:27:36.898Z,1.35
2023-08-09T20:30:06.070Z,1.55
2023-08-09T20:32:34.218Z,2.83
2023-08-09T20:35:02.355Z,2.15
2023-08-09T20:37:30.136Z,2.28
2023-08-09T20:39:59.245Z,2.90
2023-08-09T20:42:27.713Z,1.30
2023-08-09T20:44:55.473Z,1.75
2023-08-09T20:47:23.567Z,2.40
2023-08-09T20:49:51.389Z,2.28
2023-08-09T20:52:19.163Z,3.55
2023-08-09T20:54:46.883Z,1.17
2023-08-09T20:57:16.132Z,1.38
2023-08-09T20:59:43.996Z,2.40
2023-08-09T21:02:12.018Z,3.15
2023-08-09T21:04:39.797Z,4.55
2023-08-09T21:07:07.623Z,3.97
2023-08-09T21:09:35.856Z,1.85
2023-08-09T21:12:04.317Z,3.58
2023-08-09T21:14:38.494Z,1.40
2023-08-09T21:17:06.500Z,1.30
2023-08-09T21:19:35.350Z,1.95
2023-08-09T21:22:04.021Z,2.95
2023-08-09T21:24:31.966Z,1.45
2023-08-09T21:26:59.712Z,2.10
2023-08-09T21:29:32.098Z,1.65
2023-08-09T21:34:29.355Z,1.90
2023-08-09T21:36:57.234Z,4.00
2023-08-09T21:39:25.144Z,6.15
2023-08-09T21:41:52.913Z,2.95
2023-08-09T21:44:21.063Z,3.53
2023-08-09T21:46:48.861Z,2.88
2023-08-09T21:49:18.016Z,2.10
2023-08-09T21:51:48.373Z,2.97
2023-08-09T21:54:16.402Z,1.92
2023-08-09T21:56:44.176Z,4.40
2023-08-09T21:59:11.916Z,3.00
2023-08-09T22:01:40.233Z,3.10
2023-08-09T22:04:08.181Z,2.40
2023-08-09T22:06:37.423Z,2.47
2023-08-09T22:09:06.304Z,2.03
2023-08-09T22:11:34.207Z,2.65
2023-08-09T22:14:02.077Z,2.10
2023-08-09T22:16:29.912Z,2.05
2023-08-09T22:18:57.696Z,3.65
2023-08-09T22:21:25.515Z,2.28
2023-08-09T22:23:55.646Z,1.90
2023-08-09T22:26:23.602Z,1.90
2023-08-09T22:28:51.365Z,2.15
2023-08-09T22:31:19.157Z,3.50
2023-08-09T22:33:47.053Z,2.38
2023-08-09T22:36:14.988Z,1.90
2023-08-09T22:38:42.819Z,3.30
2023-08-09T22:41:12.092Z,1.88
2023-08-09T22:43:39.906Z,1.50
2023-08-09T22:46:07.880Z,4.35
2023-08-09T22:48:35.786Z,2.33
2023-08-09T22:51:05.367Z,3.03
2023-08-09T22:53:33.174Z,1.65
2023-08-09T22:56:01.054Z,2.25
2023-08-09T22:58:30.485Z,3.95
2023-08-09T23:01:01.258Z,3.05
2023-08-09T23:03:29.283Z,2.05
2023-08-09T23:05:57.176Z,2.25
2023-08-09T23:08:25.486Z,1.58
2023-08-09T23:10:55.099Z,1.60
2023-08-09T23:13:22.917Z,5.53
2023-08-09T23:15:54.871Z,3.30
2023-08-09T23:18:22.935Z,2.85
2023-08-09T23:20:51.704Z,2.33
2023-08-09T23:23:19.473Z,1.85
2023-08-09T23:25:47.381Z,2.85
2023-08-09T23:28:15.394Z,2.42
2023-08-09T23:30:43.145Z,3.67
2023-08-09T23:33:14.505Z,1.98
2023-08-09T23:35:42.322Z,2.13
2023-08-09T23:38:11.785Z,1.80
2023-08-09T23:40:40.090Z,3.65
2023-08-09T23:43:07.873Z,2.80
2023-08-09T23:45:35.676Z,3.70
2023-08-09T23:48:04.127Z,2.65
2023-08-09T23:50:33.519Z,2.13
2023-08-09T23:53:01.298Z,1.85
2023-08-09T23:55:29.138Z,3.03
2023-08-09T23:57:59.390Z,2.15
